NFL Airport (Fallon Nas (Van Voorhis Fld)) Information

FAA: NFL - ICAO: KNFL

NFL Airport Location

State Nevada
County Churchill
City Fallon
NFL Airport is 3 miles northeast of Fallon, NV.
Latitude 39-25-04.1900N
Longitude 118-41-54.9180W
Elevation 3,934ft

KNFL Airport METARs

METAR KNFL 080656Z 19004KT 10SM CLR 01/00 A3009 RMK AO2 SLP155 T00110000
Altimeter 30.09"
Temperature 1.1°C (34.0°F)
Wind 190° at 4KT
Clouds Skies are clear.
Visibility 10.0mi
Time observed: 2021-12-08T06:56:00Z

NFL Airport Details

Status Operational
Activation December 1942
Ownership Military - Navy
Usage Private
Chart SAN FRANCISCO
ATC on-site Yes
Beacon schedule sunset-sunrise
Beacon color split clear green

NFL Airport Contacts

Owner US NAVY
Owner address OCEANOGRAPHIC OFC - CODE 3142, WASHINGTON, DC 20373
Owner phone N/A
Manager LANCE WOOLF
Manager address 1600 MEDICAL PARKWAY, CARSON CITY, NV 89702
Manager phone 775-445-8023

NFL Airport (Fallon Nas (Van Voorhis Fld)) Radio Frequencies

NFL (Airport) Radio Frequencies

UNICOM N/A
Common traffic advisory frequency (CTAF) N/A